ADDS METAR Data INFO
IDs: Format: Raw Decoded Include TAF

Data at: 1504 UTC 21 Feb 2018

KIPL 201453Z AUTO 00000KT 10SM CLR 03/M06 A3011 RMK AO2 SLP194 T00331061 53025
KIPL 211353Z AUTO 25004KT 10SM CLR 02/M11 A3010 RMK AO2 SLP193 T00221111
KIPL 211253Z AUTO 25003KT 10SM CLR 01/M09 A3009 RMK AO2 SLP187 T00111094
KIPL 201453Z AUTO 00000KT 10SM CLR 03/M06 A3011 RMK AO2 SLP194 T00331061 53025
KIPL 201353Z AUTO 27004KT 10SM CLR 03/M06 A3008 RMK AO2 SLP184 T00281056
KIPL 201253Z AUTO 28008KT 10SM CLR 05/M05 A3005 RMK AO2 SLP174 T00501050
KIPL 201153Z AUTO 27003KT 10SM CLR 05/M02 A3003 RMK AO2 SLP170 T00501022 10094 20050 51006
KIPL 201053Z AUTO 27007KT 10SM FEW085 06/M02 A3003 RMK AO2 SLP168 T00561017
KIPL 200953Z AUTO 26006KT 10SM CLR 06/M01 A3002 RMK AO2 SLP166 T00611006
KIPL 200853Z AUTO 29004KT 10SM CLR 07/M01 A3002 RMK AO2 SLP164 T00671006 51017
KIPL 200753Z AUTO 25006KT 10SM CLR 08/M01 A3000 RMK AO2 SLP159 T00831006 401890083
KIPL 200653Z AUTO 24008KT 10SM CLR 09/M01 A2998 RMK AO2 SLP152 T00891006
KIPL 200553Z AUTO 27007KT 10SM CLR 09/M01 A2996 RMK AO2 SLP146 T00941011 10167 20094 53030
KIPL 200453Z AUTO 26013KT 10SM CLR 11/M03 A2993 RMK AO2 SLP134 T01061028
KIPL 200353Z AUTO 26012KT 10SM BKN090 12/M03 A2990 RMK AO2 SLP126 T01171033